createdAt,value
2018-07-04T00:02:34.476Z,99782.41
2018-07-04T00:05:20.940Z,99778.57
2018-07-04T00:08:07.568Z,99786.39
2018-07-04T00:10:54.160Z,99785.00
2018-07-04T00:13:40.788Z,99785.84
2018-07-04T00:16:27.416Z,99785.27
2018-07-04T00:19:14.020Z,99789.83
2018-07-04T00:22:00.665Z,99785.98
2018-07-04T00:24:47.218Z,99785.18
2018-07-04T00:27:33.870Z,99780.13
2018-07-04T00:30:20.509Z,99783.39
2018-07-04T00:33:07.205Z,99785.00
2018-07-04T00:35:53.860Z,99786.48
2018-07-04T00:38:40.467Z,99785.44
2018-07-04T00:41:27.132Z,99784.69
2018-07-04T00:44:13.657Z,99788.18
2018-07-04T00:47:00.209Z,99781.34
2018-07-04T00:49:46.773Z,99781.81
2018-07-04T00:52:33.455Z,99780.64
2018-07-04T00:55:19.976Z,99783.80
2018-07-04T00:58:06.516Z,99781.36
2018-07-04T01:00:53.089Z,99783.17
2018-07-04T01:03:40.064Z,99782.83
2018-07-04T01:06:26.583Z,99779.34
2018-07-04T01:09:13.189Z,99774.92
2018-07-04T01:11:59.857Z,99781.70
2018-07-04T01:14:46.359Z,99775.02
2018-07-04T01:17:33.001Z,99784.95
2018-07-04T01:20:19.660Z,99777.86
2018-07-04T01:23:06.328Z,99781.70
2018-07-04T01:25:52.820Z,99781.83
2018-07-04T01:28:44.683Z,99791.83
2018-07-04T01:31:31.287Z,99791.08
2018-07-04T01:34:18.630Z,99792.09
2018-07-04T01:37:05.164Z,99791.38
2018-07-04T01:39:51.855Z,99797.71
2018-07-04T01:42:38.350Z,99797.53
2018-07-04T01:45:25.144Z,99801.05
2018-07-04T01:48:11.724Z,99805.59
2018-07-04T01:50:58.356Z,99802.72
2018-07-04T01:53:45.021Z,99801.26
2018-07-04T01:56:31.425Z,99798.86
2018-07-04T01:59:18.337Z,99795.10
2018-07-04T02:02:04.892Z,99794.14
2018-07-04T02:04:51.508Z,99797.03
2018-07-04T02:07:38.157Z,99803.06
2018-07-04T02:10:24.768Z,99801.28
2018-07-04T02:13:11.364Z,99796.91
2018-07-04T02:15:58.040Z,99802.13
2018-07-04T02:18:44.471Z,99799.06
2018-07-04T02:21:31.368Z,99802.84
2018-07-04T02:24:18.300Z,99797.19
2018-07-04T02:27:05.072Z,99797.27
2018-07-04T02:29:51.597Z,99800.36
2018-07-04T02:32:38.228Z,99702.13
2018-07-04T02:35:24.921Z,99796.83
2018-07-04T02:38:11.649Z,99791.95
2018-07-04T02:40:58.084Z,99801.52
2018-07-04T02:43:44.729Z,99792.80
2018-07-04T02:46:40.456Z,99796.98
2018-07-04T02:49:26.965Z,99788.89
2018-07-04T02:52:13.629Z,99796.98
2018-07-04T02:55:00.307Z,99794.60
2018-07-04T02:57:46.996Z,99796.56
2018-07-04T03:00:33.660Z,99799.94
2018-07-04T03:03:20.197Z,99793.95
2018-07-04T03:06:06.903Z,99797.48
2018-07-04T03:08:53.484Z,99798.21
2018-07-04T03:11:40.103Z,99805.00
2018-07-04T03:14:26.760Z,99796.32
2018-07-04T03:17:13.246Z,99797.63
2018-07-04T03:19:59.834Z,99797.50
2018-07-04T03:22:46.328Z,99808.56
2018-07-04T03:25:32.973Z,99798.00
2018-07-04T03:28:19.647Z,99789.39
2018-07-04T03:31:06.392Z,99794.27
2018-07-04T03:33:53.064Z,99785.68
2018-07-04T03:36:39.600Z,99787.33
2018-07-04T03:39:26.243Z,99782.99
2018-07-04T03:42:12.780Z,99784.52
2018-07-04T03:44:59.472Z,99772.33
2018-07-04T03:47:45.968Z,99782.78
2018-07-04T03:50:32.678Z,99784.41
2018-07-04T03:53:19.344Z,99776.22
2018-07-04T03:56:06.016Z,99772.74
2018-07-04T03:58:52.520Z,99774.48
2018-07-04T04:01:39.212Z,99771.92
2018-07-04T04:04:25.822Z,99776.06
2018-07-04T04:07:12.455Z,99773.36
2018-07-04T04:09:59.116Z,99778.73
2018-07-04T04:12:45.760Z,99786.44
2018-07-04T04:15:32.325Z,99780.72
2018-07-04T04:18:19.112Z,99779.59
2018-07-04T04:21:05.796Z,99780.85
2018-07-04T04:23:52.632Z,99782.59
2018-07-04T04:26:39.341Z,99778.44
2018-07-04T04:29:25.820Z,99782.81
2018-07-04T04:32:12.566Z,99786.38
2018-07-04T04:34:59.236Z,99784.28
2018-07-04T04:37:45.732Z,99784.80
2018-07-04T04:40:32.407Z,99791.00
2018-07-04T04:43:19.022Z,99787.58
2018-07-04T04:46:05.672Z,99793.20
2018-07-04T04:48:52.289Z,99795.07
2018-07-04T04:51:38.974Z,99793.82
2018-07-04T04:54:25.725Z,99789.50
2018-07-04T04:57:12.319Z,99793.00
2018-07-04T04:59:58.885Z,99792.44
2018-07-04T05:02:45.615Z,99786.22
2018-07-04T05:05:32.164Z,99790.25
2018-07-04T05:08:18.713Z,99777.34
2018-07-04T05:11:05.359Z,99778.40
2018-07-04T05:13:52.100Z,99786.07
2018-07-04T05:16:38.684Z,99783.02
2018-07-04T05:19:25.194Z,99781.28
2018-07-04T05:22:11.894Z,99784.08
2018-07-04T05:24:58.365Z,99791.06
2018-07-04T05:27:45.091Z,99787.90
2018-07-04T05:30:31.640Z,99791.78
2018-07-04T05:33:18.356Z,99794.14
2018-07-04T05:36:04.904Z,99793.83
2018-07-04T05:38:51.495Z,99791.88
2018-07-04T05:41:38.156Z,99792.39
2018-07-04T05:44:24.729Z,99786.31
2018-07-04T05:47:11.092Z,99784.22
2018-07-04T05:49:57.711Z,99787.95
2018-07-04T05:52:44.317Z,99791.36
2018-07-04T05:55:30.980Z,99787.87
2018-07-04T05:58:17.728Z,99789.36
2018-07-04T06:01:04.240Z,99793.60
2018-07-04T06:03:50.868Z,99786.88
2018-07-04T06:06:37.548Z,99788.37
2018-07-04T06:09:24.198Z,99784.62
2018-07-04T06:12:10.820Z,99792.84
2018-07-04T06:14:57.580Z,99779.78
2018-07-04T06:17:44.061Z,99776.76
2018-07-04T06:20:30.741Z,99776.91
2018-07-04T06:23:17.396Z,99765.00
2018-07-04T06:26:04.044Z,99770.52
2018-07-04T06:28:50.728Z,99759.17
2018-07-04T06:31:37.284Z,99756.76
2018-07-04T06:34:23.845Z,99755.65
2018-07-04T06:37:10.556Z,99756.89
2018-07-04T06:39:44.840Z,99756.45
2018-07-04T06:42:13.038Z,99749.66
2018-07-04T06:44:41.399Z,99754.08
2018-07-04T06:47:09.541Z,99754.17
2018-07-04T06:49:37.636Z,99752.24
2018-07-04T06:52:05.835Z,99754.70
2018-07-04T06:54:34.037Z,99749.40
2018-07-04T06:57:02.076Z,99757.53
2018-07-04T06:59:30.208Z,99745.27
2018-07-04T07:02:15.703Z,99748.54
2018-07-04T07:04:57.399Z,99743.69
2018-07-04T07:07:43.906Z,99740.03
2018-07-04T07:10:30.596Z,99662.78
2018-07-04T07:13:17.085Z,99742.36
2018-07-04T07:16:03.754Z,99742.27
2018-07-04T07:18:50.370Z,99744.98
2018-07-04T07:21:37.064Z,99745.48
2018-07-04T07:24:23.696Z,99746.48
2018-07-04T07:27:10.387Z,99749.97
2018-07-04T07:29:56.948Z,99747.82
2018-07-04T07:32:43.673Z,99741.88
2018-07-04T07:35:30.288Z,99735.92
2018-07-04T07:38:16.949Z,99742.18
2018-07-04T07:41:03.688Z,99735.11
2018-07-04T07:43:50.273Z,99729.42
2018-07-04T07:46:37.071Z,99716.14
2018-07-04T07:49:23.768Z,99729.84
2018-07-04T07:52:10.531Z,99726.47
2018-07-04T07:54:57.225Z,99723.86
2018-07-04T07:57:43.791Z,99721.92
2018-07-04T08:00:30.425Z,99714.88
2018-07-04T08:03:17.043Z,99716.17
2018-07-04T08:06:03.508Z,99713.31
2018-07-04T08:08:50.132Z,99704.47
2018-07-04T08:11:36.820Z,99714.07
2018-07-04T08:14:23.489Z,99706.53
2018-07-04T08:17:10.281Z,99705.92
2018-07-04T08:19:56.792Z,99705.13
2018-07-04T08:22:43.288Z,99703.41
2018-07-04T08:25:29.800Z,99708.52
2018-07-04T08:28:16.532Z,99706.16
2018-07-04T08:31:03.200Z,99708.30
2018-07-04T08:33:49.664Z,99708.37
2018-07-04T08:36:36.212Z,99715.20
2018-07-04T08:39:22.925Z,99711.22
2018-07-04T08:42:09.421Z,99708.31
2018-07-04T08:44:56.076Z,99708.08
2018-07-04T08:47:42.725Z,99707.44
2018-07-04T08:50:29.263Z,99705.88
2018-07-04T08:53:16.017Z,99694.91
2018-07-04T08:56:02.592Z,99699.18
2018-07-04T08:58:49.125Z,99692.52
2018-07-04T09:01:35.665Z,99686.59
2018-07-04T09:04:22.187Z,99686.63
2018-07-04T09:07:08.844Z,99679.16
2018-07-04T09:09:55.520Z,99680.02
2018-07-04T09:12:42.037Z,99680.19
2018-07-04T09:15:28.468Z,99675.81
2018-07-04T09:18:15.018Z,99670.04
2018-07-04T09:21:01.878Z,99575.20
2018-07-04T09:23:48.529Z,99667.48
2018-07-04T09:26:35.068Z,99662.25
2018-07-04T09:29:21.756Z,99656.94
2018-07-04T09:32:08.445Z,99657.05
2018-07-04T09:34:55.006Z,99646.84
2018-07-04T09:37:41.626Z,99646.69
2018-07-04T09:40:28.259Z,99643.58
2018-07-04T09:43:14.957Z,99646.25
2018-07-04T09:46:01.627Z,99633.70
2018-07-04T09:48:48.240Z,99626.22
2018-07-04T09:51:34.770Z,99624.30
2018-07-04T09:54:21.448Z,99620.09
2018-07-04T09:57:08.040Z,99616.05
2018-07-04T09:59:54.588Z,99608.45
2018-07-04T10:02:41.117Z,99610.68
2018-07-04T10:05:27.868Z,99618.74
2018-07-04T10:08:14.388Z,99614.29
2018-07-04T10:11:01.124Z,99610.11
2018-07-04T10:13:47.585Z,99607.68
2018-07-04T10:16:34.192Z,99595.73
2018-07-04T10:19:20.856Z,99597.66
2018-07-04T10:22:07.531Z,99602.30
2018-07-04T10:24:54.209Z,99598.77
2018-07-04T10:27:40.787Z,99609.60
2018-07-04T10:30:27.264Z,99607.13
2018-07-04T10:33:13.940Z,99610.31
2018-07-04T10:36:00.460Z,99597.09
2018-07-04T10:38:47.084Z,99588.41
2018-07-04T10:41:33.688Z,99586.22
2018-07-04T10:44:20.328Z,99575.02
2018-07-04T10:47:06.877Z,99570.14
2018-07-04T10:49:53.584Z,99569.16
2018-07-04T10:52:40.044Z,99563.94
2018-07-04T10:55:26.545Z,99553.30
2018-07-04T10:58:13.180Z,99548.89
2018-07-04T11:00:59.856Z,99542.31
2018-07-04T11:03:46.632Z,99548.98
2018-07-04T11:06:33.164Z,99537.05
2018-07-04T11:09:19.911Z,99529.20
2018-07-04T11:12:06.560Z,99533.22
2018-07-04T11:14:53.233Z,99523.39
2018-07-04T11:17:39.792Z,99529.82
2018-07-04T11:20:26.489Z,99520.60
2018-07-04T11:23:13.254Z,99526.20
2018-07-04T11:25:59.857Z,99525.23
2018-07-04T11:28:47.660Z,99527.25
2018-07-04T11:31:34.313Z,99523.42
2018-07-04T11:34:21.008Z,99517.20
2018-07-04T11:37:07.509Z,99517.00
2018-07-04T11:39:54.165Z,99520.84
2018-07-04T11:42:40.804Z,99502.55
2018-07-04T11:45:27.448Z,99507.16
2018-07-04T11:48:01.760Z,99504.31
2018-07-04T11:50:29.925Z,99508.94
2018-07-04T11:52:57.992Z,99505.53
2018-07-04T11:55:26.198Z,99495.33
2018-07-04T11:57:54.301Z,99481.47
2018-07-04T12:00:22.384Z,99479.44
2018-07-04T12:02:50.601Z,99472.83
2018-07-04T12:05:31.031Z,99476.39
2018-07-04T12:08:05.290Z,99465.56
2018-07-04T12:10:33.388Z,99471.39
2018-07-04T12:13:01.484Z,99470.62
2018-07-04T12:15:29.598Z,99463.58
2018-07-04T12:17:57.675Z,99469.60
2018-07-04T12:20:25.771Z,99462.77
2018-07-04T12:22:53.845Z,99462.56
2018-07-04T12:25:21.952Z,99455.53
2018-07-04T12:27:50.016Z,99448.91
2018-07-04T12:30:18.124Z,99443.06
2018-07-04T12:32:46.233Z,99442.70
2018-07-04T12:35:14.348Z,99432.42
2018-07-04T12:37:42.521Z,99427.02
2018-07-04T12:40:10.622Z,99429.21
2018-07-04T12:42:38.820Z,99420.00
2018-07-04T12:45:06.924Z,99413.53
2018-07-04T12:47:35.042Z,99331.85
2018-07-04T12:50:03.192Z,99325.98
2018-07-04T12:52:37.410Z,99396.38
2018-07-04T12:55:17.789Z,99409.84
2018-07-04T12:58:04.348Z,99402.58
2018-07-04T13:00:51.115Z,99405.34
2018-07-04T13:03:37.665Z,99403.33
2018-07-04T13:06:24.326Z,99396.78
2018-07-04T13:09:10.900Z,99389.47
2018-07-04T13:11:57.565Z,99387.83
2018-07-04T13:14:44.476Z,99381.30
2018-07-04T13:17:32.048Z,99371.38
2018-07-04T13:20:18.696Z,99371.08
2018-07-04T13:23:05.453Z,99377.15
2018-07-04T13:25:52.095Z,99387.65
2018-07-04T13:28:38.744Z,99389.76
2018-07-04T13:31:25.279Z,99384.33
2018-07-04T13:34:11.828Z,99382.35
2018-07-04T13:36:58.444Z,99384.73
2018-07-04T13:39:45.209Z,99328.00
2018-07-04T13:42:31.818Z,99392.78
2018-07-04T13:45:18.491Z,99397.66
2018-07-04T13:48:05.089Z,99392.48
2018-07-04T13:50:51.540Z,99402.50
2018-07-04T13:53:38.088Z,99410.57
2018-07-04T13:56:24.809Z,99416.13
2018-07-04T13:59:11.413Z,99423.06
2018-07-04T14:01:57.974Z,99415.62
2018-07-04T14:04:44.542Z,99427.88
2018-07-04T14:07:31.172Z,99437.19
2018-07-04T14:10:18.212Z,99437.63
2018-07-04T14:13:04.901Z,99472.39
2018-07-04T14:15:51.516Z,99477.53
2018-07-04T14:18:39.057Z,99487.17
2018-07-04T14:21:27.064Z,99527.77
2018-07-04T14:24:13.701Z,99503.31
2018-07-04T14:27:00.280Z,99518.42
2018-07-04T14:29:46.933Z,99390.27
2018-07-04T14:32:33.514Z,99512.20
2018-07-04T14:35:20.048Z,99533.50
2018-07-04T14:38:06.686Z,99409.53
2018-07-04T14:40:53.432Z,99525.70
2018-07-04T14:43:39.941Z,99537.89
2018-07-04T14:46:26.615Z,99529.95
2018-07-04T14:49:13.120Z,99533.70
2018-07-04T14:51:59.805Z,99534.98
2018-07-04T14:54:46.684Z,99540.27
2018-07-04T14:57:33.191Z,99543.30
2018-07-04T15:00:19.624Z,99562.58
2018-07-04T15:03:06.296Z,99551.73
2018-07-04T15:05:53.143Z,99582.81
2018-07-04T15:08:39.833Z,99631.14
2018-07-04T15:11:26.420Z,99709.44
2018-07-04T15:14:12.927Z,99766.49
2018-07-04T15:16:59.724Z,99788.08
2018-07-04T15:19:46.228Z,99782.50
2018-07-04T15:22:32.884Z,99819.33
2018-07-04T15:25:19.392Z,99838.58
2018-07-04T15:28:05.939Z,99834.20
2018-07-04T15:30:52.692Z,99844.58
2018-07-04T15:33:39.296Z,99824.02
2018-07-04T15:36:25.800Z,99795.70
2018-07-04T15:39:12.304Z,99789.45
2018-07-04T15:41:58.976Z,99733.17
2018-07-04T15:44:45.484Z,99709.55
2018-07-04T15:47:32.151Z,99715.79
2018-07-04T15:50:18.849Z,99720.20
2018-07-04T15:53:05.749Z,99704.34
2018-07-04T15:55:52.204Z,99705.08
2018-07-04T15:58:38.852Z,99718.70
2018-07-04T16:01:25.496Z,99734.53
2018-07-04T16:04:12.033Z,99731.38
2018-07-04T16:06:58.665Z,99725.50
2018-07-04T16:09:45.372Z,99711.74
2018-07-04T16:12:31.848Z,99687.52
2018-07-04T16:15:18.476Z,99666.38
2018-07-04T16:18:05.123Z,99658.98
2018-07-04T16:20:51.791Z,99629.14
2018-07-04T16:23:38.314Z,99562.52
2018-07-04T16:26:24.960Z,99510.63
2018-07-04T16:29:11.464Z,99504.13
2018-07-04T16:31:58.113Z,99547.03
2018-07-04T16:34:44.612Z,99535.50
2018-07-04T16:37:31.295Z,99547.41
2018-07-04T16:40:17.903Z,99609.73
2018-07-04T16:43:04.475Z,99604.00
2018-07-04T16:45:51.244Z,99574.55
2018-07-04T16:48:37.900Z,99561.80
2018-07-04T16:51:24.537Z,99533.05
2018-07-04T16:54:11.182Z,99526.73
2018-07-04T16:56:57.668Z,99518.55
2018-07-04T16:59:44.385Z,99528.23
2018-07-04T17:02:30.788Z,99531.45
2018-07-04T17:05:17.445Z,99517.20
2018-07-04T17:08:04.052Z,99504.63
2018-07-04T17:10:50.562Z,99490.83
2018-07-04T17:13:37.167Z,99486.86
2018-07-04T17:16:23.845Z,99494.41
2018-07-04T17:19:10.440Z,99490.53
2018-07-04T17:21:57.163Z,99499.01
2018-07-04T17:24:43.708Z,99512.72
2018-07-04T17:27:30.364Z,99507.97
2018-07-04T17:30:17.053Z,99515.96
2018-07-04T17:33:03.644Z,99520.87
2018-07-04T17:35:50.277Z,99530.00
2018-07-04T17:38:36.944Z,99531.25
2018-07-04T17:41:23.543Z,99538.56
2018-07-04T17:44:10.057Z,99552.20
2018-07-04T17:46:56.604Z,99551.72
2018-07-04T17:49:43.256Z,99572.44
2018-07-04T17:52:29.652Z,99564.95
2018-07-04T17:55:16.265Z,99562.75
2018-07-04T17:58:02.931Z,99572.65
2018-07-04T18:00:49.324Z,99592.94
2018-07-04T18:03:35.983Z,99607.50
2018-07-04T18:06:22.355Z,99603.31
2018-07-04T18:09:08.920Z,99608.67
2018-07-04T18:11:55.452Z,99611.78
2018-07-04T18:14:42.148Z,99604.30
2018-07-04T18:17:28.611Z,99589.97
2018-07-04T18:20:15.304Z,99593.61
2018-07-04T18:23:01.824Z,99603.77
2018-07-04T18:25:48.472Z,99620.64
2018-07-04T18:28:35.000Z,99634.75
2018-07-04T18:31:21.633Z,99647.75
2018-07-04T18:34:08.289Z,99663.62
2018-07-04T18:36:54.825Z,99673.54
2018-07-04T18:39:41.451Z,99677.75
2018-07-04T18:42:28.179Z,99698.40
2018-07-04T18:45:14.520Z,99719.09
2018-07-04T18:48:01.200Z,99726.80
2018-07-04T18:50:47.833Z,99732.85
2018-07-04T18:53:34.488Z,99732.98
2018-07-04T18:56:21.084Z,99739.95
2018-07-04T18:59:07.742Z,99739.52
2018-07-04T19:01:54.294Z,99640.80
2018-07-04T19:04:40.841Z,99737.13
2018-07-04T19:07:27.439Z,99744.31
2018-07-04T19:10:14.085Z,99744.83
2018-07-04T19:13:00.633Z,99749.91
2018-07-04T19:15:47.268Z,99752.53
2018-07-04T19:18:33.732Z,99749.04
2018-07-04T19:21:20.514Z,99739.65
2018-07-04T19:24:07.021Z,99736.96
2018-07-04T19:26:53.582Z,99735.38
2018-07-04T19:29:39.988Z,99732.82
2018-07-04T19:32:26.612Z,99735.01
2018-07-04T19:35:13.176Z,99733.90
2018-07-04T19:37:59.832Z,99715.45
2018-07-04T19:40:46.368Z,99701.89
2018-07-04T19:43:32.999Z,99696.12
2018-07-04T19:46:19.528Z,99690.22
2018-07-04T19:49:06.153Z,99683.70
2018-07-04T19:51:52.715Z,99673.20
2018-07-04T19:54:39.236Z,99675.52
2018-07-04T19:57:25.864Z,99668.75
2018-07-04T20:00:12.489Z,99658.63
2018-07-04T20:02:59.164Z,99658.16
2018-07-04T20:05:45.881Z,99655.61
2018-07-04T20:08:32.432Z,99651.84
2018-07-04T20:11:18.960Z,99642.73
2018-07-04T20:14:05.691Z,99637.47
2018-07-04T20:16:52.255Z,99641.63
2018-07-04T20:19:38.753Z,99637.75
2018-07-04T20:22:25.416Z,99637.89
2018-07-04T20:25:12.190Z,99638.30
2018-07-04T20:27:58.869Z,99646.90
2018-07-04T20:30:45.525Z,99644.42
2018-07-04T20:33:32.184Z,99660.20
2018-07-04T20:36:18.761Z,99668.08
2018-07-04T20:39:06.052Z,99675.48
2018-07-04T20:41:52.561Z,99677.50
2018-07-04T20:44:39.252Z,99668.16
2018-07-04T20:47:25.785Z,99652.20
2018-07-04T20:50:12.391Z,99652.50
2018-07-04T20:52:58.896Z,99641.80
2018-07-04T20:55:45.601Z,99630.09
2018-07-04T20:58:32.230Z,99621.88
2018-07-04T21:01:18.895Z,99615.64
2018-07-04T21:04:05.349Z,99601.42
2018-07-04T21:06:51.899Z,99597.59
2018-07-04T21:09:38.488Z,99491.13
2018-07-04T21:12:25.009Z,99584.39
2018-07-04T21:15:11.712Z,99573.42
2018-07-04T21:17:58.251Z,99573.03
2018-07-04T21:20:44.952Z,99574.73
2018-07-04T21:23:31.640Z,99575.02
2018-07-04T21:26:18.173Z,99570.78
2018-07-04T21:29:04.815Z,99570.67
2018-07-04T21:31:51.391Z,99566.03
2018-07-04T21:34:38.073Z,99565.89
2018-07-04T21:37:24.647Z,99571.23
2018-07-04T21:40:11.317Z,99567.70
2018-07-04T21:42:57.788Z,99568.45
2018-07-04T21:45:44.414Z,99564.54
2018-07-04T21:48:31.020Z,99558.42
2018-07-04T21:51:17.561Z,99572.42
2018-07-04T21:54:04.088Z,99588.23
2018-07-04T21:56:50.645Z,99580.38
2018-07-04T21:59:37.054Z,99580.51
2018-07-04T22:02:23.684Z,99588.42
2018-07-04T22:05:10.394Z,99590.42
2018-07-04T22:07:57.000Z,99596.33
2018-07-04T22:10:43.634Z,99600.42
2018-07-04T22:13:30.191Z,99602.25
2018-07-04T22:16:16.860Z,99600.45
2018-07-04T22:19:03.489Z,99611.20
2018-07-04T22:21:50.116Z,99599.73
2018-07-04T22:24:36.715Z,99590.66
2018-07-04T22:27:23.232Z,99593.10
2018-07-04T22:30:09.760Z,99595.31
2018-07-04T22:32:56.419Z,99587.66
2018-07-04T22:35:42.917Z,99591.08
2018-07-04T22:38:29.588Z,99609.58
2018-07-04T22:41:16.236Z,99593.14
2018-07-04T22:44:02.860Z,99600.42
2018-07-04T22:46:49.511Z,99605.70
2018-07-04T22:49:36.046Z,99609.32
2018-07-04T22:52:22.724Z,99608.53
2018-07-04T22:55:09.351Z,99612.72
2018-07-04T22:57:56.008Z,99606.63
2018-07-04T23:00:42.680Z,99604.80
2018-07-04T23:03:29.205Z,99603.56
2018-07-04T23:06:16.085Z,99599.13
2018-07-04T23:09:02.804Z,99599.36
2018-07-04T23:11:49.352Z,99589.39
2018-07-04T23:14:36.060Z,99587.44
2018-07-04T23:17:22.738Z,99590.13
2018-07-04T23:20:09.172Z,99595.91
2018-07-04T23:22:55.702Z,99592.65
2018-07-04T23:25:42.371Z,99592.38
2018-07-04T23:28:29.013Z,99581.91
2018-07-04T23:31:15.683Z,99580.84
2018-07-04T23:34:02.168Z,99579.73
2018-07-04T23:36:48.816Z,99571.76
2018-07-04T23:39:35.468Z,99563.79
2018-07-04T23:42:22.052Z,99561.87
2018-07-04T23:45:08.681Z,99562.91
2018-07-04T23:47:55.317Z,99557.89
2018-07-04T23:50:41.948Z,99561.98
2018-07-04T23:53:28.554Z,99558.16
2018-07-04T23:56:15.228Z,99555.01
2018-07-04T23:59:01.861Z,99556.70
